Time;durP1;ratioP1;P1;durP2;ratioP2;P2;SDS_P1;SDS_P2;PMS_P1;PMS_P2;Temp;Humidity;BMP_temperature;BMP_pressure;BME280_temperature;BME280_humidity;BME280_pressure;Samples;Min_cycle;Max_cycle;Signal;HPM_P1;HPM_P2
2022/06/13 00:00:31;;;;;;;10.20;6.97;;;;;;;;;;5033518;28;20490;-84
2022/06/13 00:03:17;;;;;;;10.55;7.28;;;;;;;;;;5027874;28;20053;-84
2022/06/13 00:06:04;;;;;;;10.20;7.45;;;;;;;;;;5037058;28;20045;-84
2022/06/13 00:08:50;;;;;;;10.43;7.05;;;;;;;;;;5037082;28;20038;-83
2022/06/13 00:11:35;;;;;;;12.57;7.20;;;;;;;;;;5048436;28;20042;-85
2022/06/13 00:14:21;;;;;;;14.25;7.30;;;;;;;;;;5045676;28;20045;-83
2022/06/13 00:17:07;;;;;;;9.60;7.82;;;;;;;;;;5056419;28;20406;-84
2022/06/13 00:19:53;;;;;;;11.55;8.13;;;;;;;;;;5048065;28;20037;-84
2022/06/13 00:22:39;;;;;;;9.18;7.43;;;;;;;;;;5043364;28;20467;-83
2022/06/13 00:25:24;;;;;;;12.20;8.27;;;;;;;;;;5039836;28;20494;-84
2022/06/13 00:28:09;;;;;;;15.35;8.60;;;;;;;;;;5041299;28;20041;-84
2022/06/13 00:30:55;;;;;;;10.57;8.27;;;;;;;;;;5041223;28;20045;-84
2022/06/13 00:33:41;;;;;;;10.05;7.50;;;;;;;;;;5043166;28;20399;-84
2022/06/13 00:36:27;;;;;;;15.35;8.23;;;;;;;;;;5048487;28;20049;-84
2022/06/13 00:39:13;;;;;;;11.55;7.53;;;;;;;;;;5038832;28;20045;-84
2022/06/13 00:41:58;;;;;;;8.13;7.32;;;;;;;;;;5038094;28;20045;-84
2022/06/13 00:45:05;;;;;;;9.40;7.78;;;;;;;;;;5036263;28;20041;-86
2022/06/13 00:47:54;;;;;;;10.23;6.97;;;;;;;;;;5036641;28;20041;-84
2022/06/13 00:50:53;;;;;;;10.77;6.88;;;;;;;;;;5036547;28;20046;-85
2022/06/13 00:53:40;;;;;;;7.95;6.40;;;;;;;;;;5036496;28;20045;-83
2022/06/13 00:56:30;;;;;;;9.13;6.45;;;;;;;;;;5014174;28;20044;-82
2022/06/13 00:59:19;;;;;;;10.73;6.95;;;;;;;;;;5021821;28;20041;-83
2022/06/13 01:02:08;;;;;;;7.40;6.32;;;;;;;;;;5028105;28;20045;-84
2022/06/13 01:04:55;;;;;;;8.10;7.00;;;;;;;;;;5035959;28;20041;-84
2022/06/13 01:07:41;;;;;;;9.10;7.22;;;;;;;;;;5036202;28;20046;-84
2022/06/13 01:13:57;;;;;;;9.00;7.47;;;;;;;;;;5035855;28;20041;-83
2022/06/13 01:17:11;;;;;;;45.83;29.85;;;;;;;;;;5028338;28;20041;-85
2022/06/13 01:20:02;;;;;;;437.75;290.98;;;;;;;;;;5014946;28;20478;-83
2022/06/13 01:23:17;;;;;;;571.92;430.25;;;;;;;;;;5036717;28;20037;-84
2022/06/13 01:26:18;;;;;;;403.13;295.83;;;;;;;;;;5035371;28;20037;-84
2022/06/13 01:29:26;;;;;;;17.83;14.05;;;;;;;;;;5042207;28;20752;-84
2022/06/13 01:32:14;;;;;;;13.10;11.10;;;;;;;;;;5035473;28;20045;-83
2022/06/13 01:34:58;;;;;;;11.32;7.60;;;;;;;;;;5035452;28;20041;-83
2022/06/13 01:38:23;;;;;;;12.00;8.13;;;;;;;;;;5035358;28;20041;-84
2022/06/13 01:41:41;;;;;;;11.75;9.73;;;;;;;;;;5035250;28;20049;-83
2022/06/13 01:44:45;;;;;;;26.10;19.80;;;;;;;;;;5026724;28;20041;-84
2022/06/13 01:47:57;;;;;;;16.17;11.82;;;;;;;;;;5027035;28;20392;-84
2022/06/13 01:51:05;;;;;;;9.60;8.57;;;;;;;;;;5035123;28;20041;-84
2022/06/13 01:54:35;;;;;;;11.73;7.93;;;;;;;;;;5020048;28;20045;-84
2022/06/13 01:57:33;;;;;;;8.10;7.30;;;;;;;;;;5025687;28;20475;-84
2022/06/13 02:00:30;;;;;;;11.90;7.88;;;;;;;;;;5034936;28;20479;-83
2022/06/13 02:03:26;;;;;;;9.27;8.30;;;;;;;;;;5034675;28;20470;-83
2022/06/13 02:06:22;;;;;;;8.82;7.93;;;;;;;;;;5035225;28;20041;-84
2022/06/13 02:09:15;;;;;;;9.70;8.63;;;;;;;;;;5034885;28;20050;-84
2022/06/13 02:12:01;;;;;;;13.43;8.40;;;;;;;;;;5035152;28;20486;-83
2022/06/13 02:14:51;;;;;;;12.82;8.68;;;;;;;;;;5034641;28;20045;-83
2022/06/13 02:17:44;;;;;;;10.20;8.90;;;;;;;;;;5035124;28;20156;-84
2022/06/13 02:20:37;;;;;;;11.95;8.82;;;;;;;;;;5036098;28;20049;-84
2022/06/13 02:23:29;;;;;;;12.73;8.90;;;;;;;;;;5035438;28;20391;-83
2022/06/13 02:26:21;;;;;;;13.35;8.65;;;;;;;;;;5036041;28;20581;-84
2022/06/13 02:29:29;;;;;;;10.35;8.68;;;;;;;;;;5035833;28;20041;-83
2022/06/13 02:32:19;;;;;;;10.25;8.82;;;;;;;;;;5035811;28;20049;-83
2022/06/13 02:35:17;;;;;;;12.30;8.65;;;;;;;;;;5035982;28;20041;-83
2022/06/13 02:38:05;;;;;;;11.52;8.73;;;;;;;;;;5042469;28;20049;-84
2022/06/13 02:41:03;;;;;;;10.77;8.98;;;;;;;;;;5034053;28;20498;-83
2022/06/13 02:44:12;;;;;;;10.75;8.20;;;;;;;;;;5034555;28;20494;-84
2022/06/13 02:47:05;;;;;;;13.95;8.90;;;;;;;;;;5034131;28;20049;-84
2022/06/13 02:50:06;;;;;;;15.45;8.98;;;;;;;;;;5020151;28;20045;-84
2022/06/13 02:53:13;;;;;;;13.10;9.13;;;;;;;;;;5034576;28;20037;-84
2022/06/13 02:56:20;;;;;;;12.20;8.63;;;;;;;;;;5032889;28;20045;-83
2022/06/13 02:59:41;;;;;;;11.35;9.65;;;;;;;;;;5034055;28;20042;-83
2022/06/13 03:02:37;;;;;;;10.15;8.52;;;;;;;;;;5040342;28;20045;-83
2022/06/13 03:05:50;;;;;;;12.65;9.00;;;;;;;;;;5026157;28;20033;-84
2022/06/13 03:08:55;;;;;;;9.68;8.40;;;;;;;;;;5034089;28;20049;-83
2022/06/13 03:11:50;;;;;;;14.25;8.45;;;;;;;;;;5034615;28;20041;-84
2022/06/13 03:14:54;;;;;;;10.82;7.65;;;;;;;;;;5018955;28;20057;-84
2022/06/13 03:17:56;;;;;;;13.68;8.52;;;;;;;;;;5034159;28;20041;-84
2022/06/13 03:20:49;;;;;;;9.90;8.27;;;;;;;;;;5033891;28;20049;-84
2022/06/13 03:23:43;;;;;;;12.35;8.23;;;;;;;;;;5033523;28;20037;-83
2022/06/13 03:26:36;;;;;;;11.73;8.80;;;;;;;;;;5033745;28;20037;-84
2022/06/13 03:29:34;;;;;;;11.30;8.52;;;;;;;;;;5020056;28;20045;-83
2022/06/13 03:32:27;;;;;;;10.18;8.32;;;;;;;;;;5032949;28;20470;-84
2022/06/13 03:35:16;;;;;;;14.65;8.75;;;;;;;;;;5034672;28;20049;-83
2022/06/13 03:38:05;;;;;;;11.57;8.48;;;;;;;;;;5038157;28;20053;-82
2022/06/13 03:40:56;;;;;;;13.18;8.73;;;;;;;;;;5037109;28;20045;-82
2022/06/13 03:43:53;;;;;;;14.30;8.68;;;;;;;;;;5037464;28;20041;-83
2022/06/13 03:47:00;;;;;;;13.95;9.05;;;;;;;;;;5037646;28;20041;-82
2022/06/13 03:49:59;;;;;;;11.25;9.48;;;;;;;;;;5037520;28;20045;-82
2022/06/13 03:52:52;;;;;;;10.23;8.98;;;;;;;;;;5037284;28;20045;-83
2022/06/13 03:56:14;;;;;;;14.10;9.40;;;;;;;;;;5037561;28;20045;-84
2022/06/13 03:59:08;;;;;;;12.00;9.35;;;;;;;;;;5007108;28;20399;-83
2022/06/13 04:01:59;;;;;;;10.13;8.80;;;;;;;;;;5021191;28;20041;-82
2022/06/13 04:04:49;;;;;;;10.27;8.55;;;;;;;;;;5036747;28;20041;-82
2022/06/13 04:07:37;;;;;;;12.30;9.35;;;;;;;;;;5036632;28;20053;-84
2022/06/13 04:10:23;;;;;;;11.95;9.43;;;;;;;;;;5022035;28;20045;-84
2022/06/13 04:13:24;;;;;;;10.48;9.35;;;;;;;;;;5036640;28;20041;-84
2022/06/13 04:16:49;;;;;;;10.60;8.68;;;;;;;;;;5037043;28;20037;-84
2022/06/13 04:19:40;;;;;;;9.70;8.70;;;;;;;;;;5036922;28;20053;-83
2022/06/13 04:22:35;;;;;;;13.98;9.75;;;;;;;;;;5036973;28;20403;-84
2022/06/13 04:25:33;;;;;;;12.82;8.93;;;;;;;;;;5042534;28;20398;-84
2022/06/13 04:28:33;;;;;;;14.63;9.05;;;;;;;;;;5036978;28;20037;-84
2022/06/13 04:31:20;;;;;;;11.27;8.80;;;;;;;;;;5036891;28;20083;-83
2022/06/13 04:34:11;;;;;;;12.75;8.35;;;;;;;;;;5042468;28;20080;-83
2022/06/13 04:36:57;;;;;;;9.93;8.73;;;;;;;;;;5036594;28;20053;-83
2022/06/13 04:39:45;;;;;;;18.08;8.40;;;;;;;;;;5036427;28;20045;-84
2022/06/13 04:42:35;;;;;;;9.30;8.40;;;;;;;;;;5036295;28;20050;-84
2022/06/13 04:45:23;;;;;;;8.93;8.02;;;;;;;;;;5043149;28;20033;-82
2022/06/13 04:48:09;;;;;;;9.98;8.32;;;;;;;;;;5035579;28;20474;-83
2022/06/13 04:50:58;;;;;;;9.25;7.43;;;;;;;;;;5036027;28;20049;-83
2022/06/13 04:54:06;;;;;;;7.57;6.30;;;;;;;;;;5042791;28;20054;-83
2022/06/13 04:56:57;;;;;;;8.60;5.82;;;;;;;;;;5043086;28;20045;-83
2022/06/13 04:59:44;;;;;;;8.48;6.35;;;;;;;;;;5021343;28;20041;-83
2022/06/13 05:02:40;;;;;;;8.38;5.88;;;;;;;;;;5036248;28;20042;-83
2022/06/13 05:05:43;;;;;;;6.90;5.20;;;;;;;;;;5036472;28;20037;-84
2022/06/13 05:08:32;;;;;;;12.52;6.10;;;;;;;;;;5035921;28;20049;-84
2022/06/13 05:11:27;;;;;;;16.42;5.90;;;;;;;;;;5027645;28;20049;-84
2022/06/13 05:14:21;;;;;;;11.50;5.80;;;;;;;;;;5034292;28;20041;-84
2022/06/13 05:17:34;;;;;;;11.73;5.60;;;;;;;;;;5042526;28;20046;-83
2022/06/13 05:20:26;;;;;;;10.60;6.00;;;;;;;;;;5042151;28;20045;-84
2022/06/13 05:23:12;;;;;;;10.15;6.22;;;;;;;;;;5036098;28;20045;-82
2022/06/13 05:26:00;;;;;;;9.93;5.60;;;;;;;;;;5035541;28;20041;-83
2022/06/13 05:28:45;;;;;;;14.15;6.88;;;;;;;;;;5035493;28;20050;-82
2022/06/13 05:31:31;;;;;;;17.80;7.07;;;;;;;;;;5042634;28;20045;-83
2022/06/13 05:34:38;;;;;;;12.77;6.65;;;;;;;;;;5035500;28;20479;-83
2022/06/13 05:37:24;;;;;;;9.00;6.22;;;;;;;;;;5035559;28;20041;-84
2022/06/13 05:40:17;;;;;;;9.43;6.30;;;;;;;;;;5035706;28;20053;-84
2022/06/13 05:43:03;;;;;;;13.40;6.55;;;;;;;;;;5035352;28;20037;-83
2022/06/13 05:45:49;;;;;;;14.40;5.90;;;;;;;;;;5035027;28;20049;-83
2022/06/13 05:48:35;;;;;;;9.00;5.32;;;;;;;;;;5035213;28;20049;-83
2022/06/13 05:51:21;;;;;;;10.50;5.28;;;;;;;;;;5035484;28;20049;-84
2022/06/13 05:54:12;;;;;;;8.80;5.07;;;;;;;;;;5034845;28;20484;-84
2022/06/13 05:56:57;;;;;;;10.27;5.03;;;;;;;;;;5041400;28;20479;-85
2022/06/13 05:59:42;;;;;;;11.40;5.25;;;;;;;;;;5037590;28;20049;-85
2022/06/13 06:02:28;;;;;;;8.48;4.72;;;;;;;;;;5034632;28;20045;-84
2022/06/13 06:05:14;;;;;;;7.55;4.55;;;;;;;;;;5034754;28;20037;-83
2022/06/13 06:08:00;;;;;;;8.18;4.22;;;;;;;;;;5034765;28;20046;-83
2022/06/13 06:10:47;;;;;;;8.23;4.85;;;;;;;;;;5051024;23;20041;-84
2022/06/13 06:13:31;;;;;;;13.35;5.13;;;;;;;;;;5055085;28;20398;-85
2022/06/13 06:16:19;;;;;;;7.07;5.05;;;;;;;;;;5039213;28;20402;-84
2022/06/13 06:19:04;;;;;;;6.82;4.43;;;;;;;;;;5060974;28;20048;-84
2022/06/13 06:21:50;;;;;;;7.75;4.75;;;;;;;;;;5046806;28;20474;-84
2022/06/13 06:24:36;;;;;;;6.47;4.63;;;;;;;;;;5054127;28;20040;-85
2022/06/13 06:27:21;;;;;;;6.32;4.53;;;;;;;;;;5054448;28;20045;-85
2022/06/13 06:30:08;;;;;;;12.10;4.75;;;;;;;;;;5054547;28;20513;-85
2022/06/13 06:32:55;;;;;;;6.22;4.50;;;;;;;;;;5054250;28;20049;-85
2022/06/13 06:35:41;;;;;;;6.90;4.07;;;;;;;;;;5054455;28;20045;-84
2022/06/13 06:38:27;;;;;;;6.75;4.35;;;;;;;;;;5054877;28;20409;-86
2022/06/13 06:41:13;;;;;;;11.02;4.80;;;;;;;;;;5054111;28;20390;-84
2022/06/13 06:43:58;;;;;;;11.45;4.30;;;;;;;;;;5053924;28;20066;-84
2022/06/13 06:46:43;;;;;;;12.68;4.10;;;;;;;;;;5054723;28;20045;-85
2022/06/13 06:49:34;;;;;;;6.50;4.78;;;;;;;;;;5046080;28;20040;-85
2022/06/13 06:52:20;;;;;;;8.82;4.30;;;;;;;;;;5038880;28;20045;-84
2022/06/13 07:01:18;;;;;;;8.90;4.72;;;;;;;;;;5060995;28;20037;-85
2022/06/13 07:04:03;;;;;;;10.43;4.35;;;;;;;;;;5053454;28;20402;-86
2022/06/13 07:06:48;;;;;;;18.23;4.72;;;;;;;;;;5053021;28;20040;-84
2022/06/13 07:09:33;;;;;;;5.30;4.03;;;;;;;;;;5054527;28;20502;-84
2022/06/13 07:12:20;;;;;;;13.30;4.45;;;;;;;;;;5056355;28;20045;-86
2022/06/13 07:15:06;;;;;;;10.10;5.15;;;;;;;;;;5058140;28;20049;-85
2022/06/13 07:17:51;;;;;;;27.17;21.70;;;;;;;;;;5057911;28;20041;-86
2022/06/13 07:20:38;;;;;;;9.98;6.28;;;;;;;;;;5049362;28;20045;-85
2022/06/13 07:23:23;;;;;;;8.15;5.40;;;;;;;;;;5057893;28;20036;-86
2022/06/13 07:26:10;;;;;;;9.38;5.72;;;;;;;;;;5057356;28;20044;-84
2022/06/13 07:28:55;;;;;;;8.93;5.20;;;;;;;;;;5049217;28;20057;-84
2022/06/13 07:31:58;;;;;;;15.65;11.57;;;;;;;;;;5057758;28;20048;-84
2022/06/13 07:34:47;;;;;;;12.70;10.93;;;;;;;;;;5057297;28;20041;-84
2022/06/13 07:40:36;;;;;;;11.50;7.70;;;;;;;;;;5064335;28;20041;-83
2022/06/13 07:43:30;;;;;;;28.02;16.95;;;;;;;;;;5057011;28;20045;-82
2022/06/13 07:46:16;;;;;;;18.10;10.30;;;;;;;;;;5064093;28;20113;-82
2022/06/13 07:49:01;;;;;;;7.90;4.85;;;;;;;;;;5057495;28;20466;-82
2022/06/13 07:51:47;;;;;;;7.55;3.33;;;;;;;;;;5057041;28;20053;-82
2022/06/13 07:54:33;;;;;;;8.65;3.47;;;;;;;;;;5057022;28;20057;-83
2022/06/13 07:57:19;;;;;;;7.20;4.03;;;;;;;;;;5063531;22;20049;-82
2022/06/13 08:00:06;;;;;;;6.13;3.85;;;;;;;;;;5057387;28;20049;-79
2022/06/13 08:02:53;;;;;;;11.07;5.30;;;;;;;;;;5048973;28;20045;-76
2022/06/13 08:05:39;;;;;;;7.30;4.13;;;;;;;;;;5063703;28;20037;-76
2022/06/13 08:08:26;;;;;;;7.03;3.88;;;;;;;;;;5048682;28;20045;-76
2022/06/13 08:11:15;;;;;;;5.10;3.00;;;;;;;;;;5057087;28;20045;-77
2022/06/13 08:14:00;;;;;;;7.40;3.30;;;;;;;;;;5057159;28;20041;-76
2022/06/13 08:16:47;;;;;;;5.97;3.65;;;;;;;;;;5063419;28;20044;-79
2022/06/13 08:19:33;;;;;;;6.45;3.38;;;;;;;;;;5055864;28;20041;-77
2022/06/13 08:22:18;;;;;;;8.85;3.22;;;;;;;;;;5063095;28;20045;-77
2022/06/13 08:25:06;;;;;;;6.65;4.30;;;;;;;;;;5063218;28;20040;-78
2022/06/13 08:27:52;;;;;;;5.28;3.60;;;;;;;;;;5048114;28;20049;-76
2022/06/13 08:30:56;;;;;;;20.92;11.82;;;;;;;;;;5062727;28;20394;-77
2022/06/13 08:33:41;;;;;;;7.30;3.78;;;;;;;;;;5063510;28;20394;-77
2022/06/13 08:36:27;;;;;;;5.78;3.30;;;;;;;;;;5041605;28;20492;-77
2022/06/13 08:39:13;;;;;;;4.18;3.40;;;;;;;;;;5056261;28;20044;-77
2022/06/13 08:42:05;;;;;;;5.80;3.50;;;;;;;;;;5055367;28;20044;-77
2022/06/13 08:45:04;;;;;;;5.25;3.00;;;;;;;;;;5055966;28;20045;-77
2022/06/13 08:48:08;;;;;;;11.93;3.67;;;;;;;;;;5062898;28;20045;-77
2022/06/13 08:51:24;;;;;;;;;;;;;;;;;;5068011;23;20061;-76
2022/06/13 08:54:15;;;;;;;5.03;3.23;;;;;;;;;;5050103;28;19917;-79
2022/06/13 08:57:07;;;;;;;7.07;3.40;;;;;;;;;;5056235;28;20041;-78
2022/06/13 09:00:03;;;;;;;7.38;3.33;;;;;;;;;;5062663;28;20398;-77
2022/06/13 09:03:03;;;;;;;6.35;3.40;;;;;;;;;;5056102;28;20045;-77
2022/06/13 09:05:50;;;;;;;6.03;3.40;;;;;;;;;;5055893;28;20049;-78
2022/06/13 09:08:58;;;;;;;5.30;3.20;;;;;;;;;;5062211;28;20049;-78
2022/06/13 09:12:05;;;;;;;6.00;3.25;;;;;;;;;;5055844;28;20049;-78
2022/06/13 09:15:22;;;;;;;5.68;3.58;;;;;;;;;;5054969;28;20049;-79
2022/06/13 09:18:24;;;;;;;4.07;3.20;;;;;;;;;;5062360;28;20049;-79
2022/06/13 09:21:22;;;;;;;5.53;3.60;;;;;;;;;;5055538;28;20478;-76
2022/06/13 09:24:34;;;;;;;5.07;3.05;;;;;;;;;;5062466;28;20425;-77
2022/06/13 09:27:30;;;;;;;3.53;2.80;;;;;;;;;;5062632;28;20398;-77
2022/06/13 09:30:22;;;;;;;3.92;3.17;;;;;;;;;;5063208;28;20068;-77
2022/06/13 09:33:14;;;;;;;5.63;3.40;;;;;;;;;;5057266;28;20044;-78
2022/06/13 09:36:12;;;;;;;4.65;3.38;;;;;;;;;;5062980;28;20049;-78
2022/06/13 09:39:07;;;;;;;4.30;3.00;;;;;;;;;;5061767;28;20490;-77
2022/06/13 09:41:52;;;;;;;;;;;;;;;;;;5047514;28;20037;-76
2022/06/13 09:44:50;;;;;;;5.95;3.13;;;;;;;;;;5055565;28;20247;-77
2022/06/13 09:47:50;;;;;;;4.40;3.20;;;;;;;;;;5056887;28;20398;-78
2022/06/13 09:50:45;;;;;;;5.15;3.10;;;;;;;;;;5060749;28;20209;-78
2022/06/13 09:54:01;;;;;;;4.13;3.10;;;;;;;;;;5061581;28;20402;-78
2022/06/13 09:57:06;;;;;;;9.80;2.63;;;;;;;;;;5055135;28;20389;-77
2022/06/13 10:00:16;;;;;;;6.38;2.75;;;;;;;;;;5054931;28;20041;-79
2022/06/13 10:03:11;;;;;;;5.53;3.22;;;;;;;;;;5061984;28;20401;-78
2022/06/13 10:06:08;;;;;;;6.43;3.13;;;;;;;;;;5066542;28;20041;-80
2022/06/13 10:09:05;;;;;;;3.88;3.00;;;;;;;;;;5057915;28;20037;-81
2022/06/13 10:12:25;;;;;;;7.28;3.60;;;;;;;;;;5055800;28;20045;-77
2022/06/13 10:15:36;;;;;;;5.78;3.42;;;;;;;;;;4973814;28;20047;-77
2022/06/13 10:18:25;;;;;;;9.25;3.55;;;;;;;;;;5024296;28;20052;-81
2022/06/13 10:21:16;;;;;;;4.40;3.00;;;;;;;;;;5061720;28;20045;-78
2022/06/13 10:24:32;;;;;;;5.68;3.40;;;;;;;;;;5054668;28;20037;-78
2022/06/13 10:27:30;;;;;;;5.40;3.60;;;;;;;;;;5054842;28;20045;-77
2022/06/13 10:30:51;;;;;;;7.05;3.53;;;;;;;;;;5061023;28;20053;-77
2022/06/13 10:33:50;;;;;;;4.43;3.55;;;;;;;;;;5061403;28;20045;-79
2022/06/13 10:36:52;;;;;;;6.22;3.60;;;;;;;;;;5061004;28;20489;-77
2022/06/13 10:39:38;;;;;;;11.07;3.75;;;;;;;;;;5054548;28;20037;-80
2022/06/13 10:42:28;;;;;;;4.30;3.40;;;;;;;;;;5054462;28;20041;-78
2022/06/13 10:45:16;;;;;;;5.00;3.03;;;;;;;;;;5053028;28;20402;-78
2022/06/13 10:48:13;;;;;;;10.25;3.83;;;;;;;;;;5039278;28;20037;-78
2022/06/13 10:50:59;;;;;;;3.83;3.33;;;;;;;;;;5054505;28;20040;-79
2022/06/13 10:53:48;;;;;;;5.22;3.80;;;;;;;;;;5054155;28;20057;-77
2022/06/13 10:56:54;;;;;;;5.88;3.47;;;;;;;;;;5053564;28;20045;-78
2022/06/13 10:59:40;;;;;;;7.38;3.50;;;;;;;;;;5053996;28;20390;-78
2022/06/13 11:02:26;;;;;;;5.90;3.25;;;;;;;;;;5054096;28;20052;-77
2022/06/13 11:05:16;;;;;;;7.18;3.30;;;;;;;;;;5060458;28;20037;-77
2022/06/13 11:08:02;;;;;;;4.57;3.40;;;;;;;;;;5053649;28;20037;-77
2022/06/13 11:10:58;;;;;;;6.35;3.47;;;;;;;;;;5060172;28;20390;-77
2022/06/13 11:13:53;;;;;;;4.90;3.33;;;;;;;;;;5053639;28;20056;-79
2022/06/13 11:23:00;;;;;;;7.70;3.40;;;;;;;;;;5060295;28;20045;-82
2022/06/13 11:25:55;;;;;;;6.50;3.60;;;;;;;;;;5053208;28;20386;-80
2022/06/13 11:28:41;;;;;;;7.10;4.57;;;;;;;;;;5053080;28;20044;-80
2022/06/13 11:31:26;;;;;;;5.28;3.80;;;;;;;;;;5059895;28;20045;-78
2022/06/13 11:34:34;;;;;;;7.93;3.88;;;;;;;;;;5053911;28;20045;-78
2022/06/13 11:37:23;;;;;;;11.70;3.35;;;;;;;;;;5053791;28;20045;-78
2022/06/13 11:40:16;;;;;;;5.30;3.90;;;;;;;;;;5053682;28;20362;-79
2022/06/13 11:43:03;;;;;;;6.80;3.50;;;;;;;;;;5053568;28;20052;-78
2022/06/13 11:46:01;;;;;;;3.80;3.30;;;;;;;;;;5060464;28;20041;-79
2022/06/13 11:48:48;;;;;;;6.50;3.78;;;;;;;;;;5060770;28;20041;-79
2022/06/13 11:51:43;;;;;;;7.47;3.70;;;;;;;;;;5052635;28;20045;-81
2022/06/13 11:54:31;;;;;;;6.50;4.13;;;;;;;;;;5053267;28;20045;-79
2022/06/13 11:57:39;;;;;;;5.93;3.80;;;;;;;;;;5063549;28;20045;-81
2022/06/13 12:00:31;;;;;;;4.35;3.75;;;;;;;;;;5064084;28;20049;-79
2022/06/13 12:03:19;;;;;;;7.00;3.75;;;;;;;;;;5064130;28;20049;-80
2022/06/13 12:06:13;;;;;;;6.95;3.38;;;;;;;;;;5059062;28;20048;-80
2022/06/13 12:09:23;;;;;;;6.13;4.07;;;;;;;;;;5059320;28;20478;-80
2022/06/13 12:12:08;;;;;;;7.18;3.90;;;;;;;;;;5056835;28;20049;-81
2022/06/13 12:14:54;;;;;;;5.72;4.00;;;;;;;;;;5056824;28;20049;-79
2022/06/13 12:17:47;;;;;;;6.70;3.45;;;;;;;;;;5041773;28;20041;-80
2022/06/13 12:20:53;;;;;;;5.47;3.90;;;;;;;;;;5063163;28;20037;-77
2022/06/13 12:23:48;;;;;;;5.40;4.15;;;;;;;;;;5056684;28;20041;-77
2022/06/13 12:26:36;;;;;;;5.60;3.72;;;;;;;;;;5048205;28;20053;-75
2022/06/13 12:29:39;;;;;;;12.50;3.97;;;;;;;;;;5056598;28;20394;-77
2022/06/13 12:32:30;;;;;;;5.88;3.58;;;;;;;;;;5063596;28;20406;-77
2022/06/13 12:36:04;;;;;;;9.38;4.00;;;;;;;;;;5062638;28;20048;-80
2022/06/13 12:39:04;;;;;;;5.07;3.80;;;;;;;;;;5062637;28;20493;-80
2022/06/13 12:42:08;;;;;;;4.20;3.80;;;;;;;;;;5056335;28;20049;-80
2022/06/13 12:45:31;;;;;;;10.15;3.88;;;;;;;;;;5062333;28;20041;-81
2022/06/13 12:48:29;;;;;;;9.77;4.75;;;;;;;;;;5063829;28;20045;-82
2022/06/13 12:51:49;;;;;;;5.30;4.18;;;;;;;;;;5061885;28;20045;-81
2022/06/13 12:55:13;;;;;;;5.50;4.15;;;;;;;;;;4962317;28;20043;-80
2022/06/13 12:58:17;;;;;;;8.50;4.05;;;;;;;;;;5042555;28;20048;-80
2022/06/13 13:01:12;;;;;;;9.75;4.20;;;;;;;;;;5062462;28;20049;-81
2022/06/13 13:04:22;;;;;;;5.18;3.85;;;;;;;;;;5062737;28;20045;-82
2022/06/13 13:07:10;;;;;;;6.40;4.10;;;;;;;;;;5055591;28;20402;-82
2022/06/13 13:10:21;;;;;;;6.20;3.92;;;;;;;;;;5058738;28;20053;-83
2022/06/13 13:13:23;;;;;;;7.45;4.10;;;;;;;;;;5062301;28;20439;-81
2022/06/13 13:16:32;;;;;;;5.35;4.10;;;;;;;;;;5055150;28;20040;-84
2022/06/13 13:19:38;;;;;;;5.88;3.80;;;;;;;;;;5047395;28;20048;-81
2022/06/13 13:22:35;;;;;;;7.22;4.25;;;;;;;;;;5056155;28;20052;-86
2022/06/13 13:25:50;;;;;;;7.18;3.85;;;;;;;;;;5035081;28;20037;-87
2022/06/13 13:28:55;;;;;;;6.68;3.40;;;;;;;;;;5056273;28;20049;-83
2022/06/13 13:31:52;;;;;;;11.57;4.50;;;;;;;;;;5063824;28;20044;-86
2022/06/13 13:35:00;;;;;;;5.72;3.60;;;;;;;;;;5062823;28;20052;-85
2022/06/13 13:37:55;;;;;;;6.30;3.25;;;;;;;;;;5047397;28;20045;-86
2022/06/13 13:40:43;;;;;;;5.10;4.05;;;;;;;;;;5055222;28;20041;-85
2022/06/13 13:43:46;;;;;;;8.63;3.28;;;;;;;;;;5055831;28;20041;-85
2022/06/13 13:46:46;;;;;;;5.18;3.22;;;;;;;;;;5055393;28;20053;-85
2022/06/13 13:49:46;;;;;;;3.65;3.20;;;;;;;;;;5055136;28;20036;-83
2022/06/13 13:52:41;;;;;;;7.95;3.55;;;;;;;;;;5054777;28;20049;-82
2022/06/13 13:55:46;;;;;;;5.80;3.20;;;;;;;;;;5054711;28;20041;-84
2022/06/13 13:58:33;;;;;;;7.90;3.53;;;;;;;;;;5055368;28;20389;-85
2022/06/13 14:01:25;;;;;;;4.57;3.13;;;;;;;;;;5061152;28;20044;-84
2022/06/13 14:04:37;;;;;;;4.57;2.97;;;;;;;;;;5060952;28;20033;-84
2022/06/13 14:07:41;;;;;;;5.15;2.97;;;;;;;;;;5054578;28;20037;-85
2022/06/13 14:10:30;;;;;;;4.70;2.88;;;;;;;;;;5055289;28;20036;-83
2022/06/13 14:13:16;;;;;;;8.23;3.42;;;;;;;;;;5054895;28;20053;-85
2022/06/13 14:16:03;;;;;;;7.20;3.40;;;;;;;;;;5054709;28;20049;-85
2022/06/13 14:19:10;;;;;;;5.13;3.20;;;;;;;;;;5054343;28;20397;-85
2022/06/13 14:21:59;;;;;;;5.90;3.42;;;;;;;;;;5039679;28;20041;-86
2022/06/13 14:24:55;;;;;;;8.20;3.20;;;;;;;;;;5046406;28;20037;-82
2022/06/13 14:28:14;;;;;;;6.45;3.47;;;;;;;;;;5055267;28;20397;-80
2022/06/13 14:31:05;;;;;;;6.30;3.40;;;;;;;;;;5038372;28;20048;-85
2022/06/13 14:37:06;;;;;;;4.10;3.13;;;;;;;;;;5054164;28;20045;-80
2022/06/13 14:40:07;;;;;;;6.75;3.60;;;;;;;;;;5054332;28;20474;-80
2022/06/13 14:42:55;;;;;;;8.63;3.67;;;;;;;;;;5057789;28;20339;-78
2022/06/13 14:45:51;;;;;;;4.03;3.58;;;;;;;;;;5062520;28;20474;-82
2022/06/13 14:48:44;;;;;;;8.57;3.67;;;;;;;;;;5063936;28;20498;-78
2022/06/13 14:51:51;;;;;;;5.15;2.83;;;;;;;;;;5055857;28;20045;-77
2022/06/13 14:54:46;;;;;;;7.32;3.35;;;;;;;;;;5056347;28;20394;-80
2022/06/13 14:57:35;;;;;;;3.95;3.50;;;;;;;;;;5055717;28;20398;-77
2022/06/13 15:00:25;;;;;;;4.85;3.70;;;;;;;;;;5057063;28;20041;-81
2022/06/13 15:03:12;;;;;;;6.75;3.13;;;;;;;;;;5056793;28;20049;-80
2022/06/13 15:06:02;;;;;;;3.22;2.92;;;;;;;;;;5055618;28;20486;-78
2022/06/13 15:09:10;;;;;;;6.13;3.13;;;;;;;;;;5055385;28;20045;-80
2022/06/13 15:12:00;;;;;;;8.82;2.90;;;;;;;;;;5053604;28;20346;-79
2022/06/13 15:15:02;;;;;;;4.55;3.17;;;;;;;;;;5053096;28;20052;-80
2022/06/13 15:17:48;;;;;;;6.05;3.15;;;;;;;;;;5038517;28;20048;-78
2022/06/13 15:20:44;;;;;;;4.97;2.85;;;;;;;;;;5060210;28;20044;-79
2022/06/13 15:23:36;;;;;;;5.22;2.85;;;;;;;;;;5060004;28;20482;-79
2022/06/13 15:26:28;;;;;;;5.75;3.28;;;;;;;;;;5060119;28;20048;-80
2022/06/13 15:29:23;;;;;;;3.97;2.85;;;;;;;;;;5054338;28;20390;-78
2022/06/13 15:32:30;;;;;;;6.03;3.25;;;;;;;;;;5063030;28;20045;-85
2022/06/13 15:35:17;;;;;;;13.30;3.80;;;;;;;;;;5057394;28;20049;-80
2022/06/13 15:38:04;;;;;;;4.85;3.08;;;;;;;;;;5057007;28;20049;-79
2022/06/13 15:41:03;;;;;;;4.78;3.33;;;;;;;;;;5057746;28;20048;-83
2022/06/13 15:43:54;;;;;;;5.97;2.92;;;;;;;;;;5036471;28;20049;-82
2022/06/13 15:46:50;;;;;;;5.07;3.13;;;;;;;;;;5064004;28;20045;-80
2022/06/13 15:49:45;;;;;;;6.10;3.35;;;;;;;;;;5057081;28;20478;-81
2022/06/13 15:52:42;;;;;;;5.93;3.10;;;;;;;;;;5042087;28;20053;-83
2022/06/13 15:55:44;;;;;;;4.05;2.70;;;;;;;;;;5057538;28;20041;-83
2022/06/13 15:58:30;;;;;;;5.20;2.80;;;;;;;;;;5065655;28;20044;-81
2022/06/13 16:01:15;;;;;;;3.33;2.90;;;;;;;;;;5056844;28;20057;-80
2022/06/13 16:04:14;;;;;;;4.57;2.70;;;;;;;;;;5056697;28;20044;-81
2022/06/13 16:07:00;;;;;;;3.55;2.88;;;;;;;;;;5056742;28;20041;-79
2022/06/13 16:09:45;;;;;;;4.05;3.20;;;;;;;;;;5056649;28;20406;-83
2022/06/13 16:12:45;;;;;;;5.03;3.00;;;;;;;;;;5063215;28;20045;-82
2022/06/13 16:15:37;;;;;;;3.50;2.90;;;;;;;;;;5056620;28;20045;-80
2022/06/13 16:18:35;;;;;;;4.80;2.67;;;;;;;;;;5056337;28;20041;-80
2022/06/13 16:21:26;;;;;;;5.72;2.80;;;;;;;;;;5056713;28;20044;-81
2022/06/13 16:24:15;;;;;;;4.47;2.80;;;;;;;;;;5056990;28;20033;-80
2022/06/13 16:27:03;;;;;;;4.35;2.80;;;;;;;;;;5062875;28;20041;-78
2022/06/13 16:29:57;;;;;;;5.45;2.80;;;;;;;;;;5056505;28;20052;-82
2022/06/13 16:32:47;;;;;;;3.97;2.42;;;;;;;;;;5063038;28;20037;-80
2022/06/13 16:35:54;;;;;;;4.10;2.70;;;;;;;;;;5062608;28;20060;-81
2022/06/13 16:38:54;;;;;;;4.75;2.47;;;;;;;;;;5055922;28;20036;-81
2022/06/13 16:41:58;;;;;;;2.90;2.60;;;;;;;;;;5055942;28;20350;-79
2022/06/13 16:44:51;;;;;;;2.63;2.38;;;;;;;;;;5062410;28;20033;-80
2022/06/13 16:47:40;;;;;;;3.78;2.55;;;;;;;;;;5062566;28;20048;-82
2022/06/13 16:50:26;;;;;;;4.53;3.00;;;;;;;;;;5055762;28;20482;-79
2022/06/13 16:53:13;;;;;;;7.80;3.08;;;;;;;;;;5054961;28;20052;-79
2022/06/13 16:55:59;;;;;;;3.88;2.80;;;;;;;;;;5055622;28;20040;-79
2022/06/13 16:58:48;;;;;;;3.25;2.95;;;;;;;;;;5055939;28;20041;-79
2022/06/13 17:01:54;;;;;;;5.53;3.08;;;;;;;;;;5055685;28;20053;-78
2022/06/13 17:04:42;;;;;;;6.30;3.75;;;;;;;;;;5055711;28;20040;-78
2022/06/13 17:07:31;;;;;;;7.68;3.55;;;;;;;;;;5055520;28;20491;-78
2022/06/13 17:10:17;;;;;;;7.57;3.53;;;;;;;;;;5055998;28;20041;-79
2022/06/13 17:13:03;;;;;;;6.15;3.47;;;;;;;;;;5062089;28;20486;-78
2022/06/13 17:15:52;;;;;;;6.38;3.42;;;;;;;;;;5061761;28;20048;-79
2022/06/13 17:18:48;;;;;;;4.03;3.40;;;;;;;;;;5055279;28;20049;-78
2022/06/13 17:21:33;;;;;;;6.68;3.63;;;;;;;;;;5062091;28;20064;-78
2022/06/13 17:24:19;;;;;;;3.83;3.38;;;;;;;;;;5062578;28;20041;-78
2022/06/13 17:33:35;;;;;;;3.85;3.33;;;;;;;;;;4994561;28;20054;-78
2022/06/13 17:36:20;;;;;;;5.00;3.75;;;;;;;;;;4993824;28;20050;-80
2022/06/13 17:39:04;;;;;;;4.88;3.83;;;;;;;;;;5031562;28;20048;-79
2022/06/13 17:41:51;;;;;;;6.78;4.05;;;;;;;;;;5055184;28;20045;-80
2022/06/13 17:44:38;;;;;;;6.35;4.78;;;;;;;;;;5062207;28;20049;-78
2022/06/13 17:47:23;;;;;;;7.45;4.03;;;;;;;;;;5055124;28;20045;-78